Glenford, New York
Current Conditions -  °F | °C
As of 5:53 PM on Thursday 18 Dec 2014 (Local Time) from KPOU Reporting Station
Overcast Overcast  
Wind Chill: 32°   Ceiling: 4200
Heat Index: 38°   Visibility: 10mi
Dew Point: 25°   Wind: 8mph
Humidity: 60%   Direction: 300°WNW
Pressure: 29.95"   Gusts: NA
Location:  42°N, 74.13°W
Report Text: KPOU 182253Z AUTO 30007KT 10SM BKN042 OVC055 03/M04 A2995 RMK AO2 SLP139 T00331039 TSNO
Loading
Personal Weather Stations






























Interactive Weather Map New forecast layout! Learn more

10-Day Weather Forecast

Advertisements
Track Severe Weather on mobile